createdAt,value
2019-05-17T00:02:26.593Z,8.57
2019-05-17T00:07:30.984Z,6.90
2019-05-17T00:12:36.810Z,7.27
2019-05-17T00:17:42.016Z,7.77
2019-05-17T00:22:47.212Z,7.50
2019-05-17T00:27:52.020Z,9.43
2019-05-17T00:32:56.969Z,8.13
2019-05-17T00:38:01.092Z,8.70
2019-05-17T00:43:06.857Z,8.63
2019-05-17T00:48:10.995Z,10.13
2019-05-17T00:53:16.354Z,8.83
2019-05-17T00:58:21.420Z,8.90
2019-05-17T01:03:26.914Z,11.00
2019-05-17T01:08:31.428Z,9.57
2019-05-17T01:13:37.441Z,8.97
2019-05-17T01:18:42.131Z,9.70
2019-05-17T01:23:46.762Z,8.50
2019-05-17T01:28:51.250Z,10.23
2019-05-17T01:33:56.535Z,10.20
2019-05-17T01:39:14.099Z,9.23
2019-05-17T01:44:07.585Z,8.60
2019-05-17T01:49:11.627Z,7.73
2019-05-17T01:54:17.585Z,8.33
2019-05-17T01:59:22.348Z,8.03
2019-05-17T02:04:26.868Z,7.93
2019-05-17T02:09:37.210Z,7.70
2019-05-17T02:14:37.517Z,6.93
2019-05-17T02:19:41.696Z,8.73
2019-05-17T02:24:46.427Z,8.03
2019-05-17T02:29:51.984Z,7.30
2019-05-17T02:34:56.141Z,6.87
2019-05-17T02:40:04.748Z,6.23
2019-05-17T02:45:06.029Z,7.17
2019-05-17T02:50:12.878Z,6.70
2019-05-17T02:55:16.910Z,6.97
2019-05-17T03:00:23.961Z,6.50
2019-05-17T03:05:27.856Z,5.77
2019-05-17T03:10:33.542Z,7.10
2019-05-17T03:15:37.983Z,6.00
2019-05-17T03:20:43.296Z,7.10
2019-05-17T03:25:47.948Z,7.10
2019-05-17T03:30:56.225Z,6.53
2019-05-17T03:36:05.373Z,9.37
2019-05-17T03:41:17.873Z,7.47
2019-05-17T03:46:13.897Z,6.93
2019-05-17T03:51:18.326Z,7.23
2019-05-17T03:56:22.559Z,7.73
2019-05-17T04:01:27.203Z,6.20
2019-05-17T04:06:32.897Z,7.10
2019-05-17T04:11:37.073Z,6.47
2019-05-17T04:16:42.853Z,7.40
2019-05-17T04:21:47.232Z,9.40
2019-05-17T04:26:52.385Z,7.43
2019-05-17T04:31:57.528Z,6.87
2019-05-17T04:37:04.305Z,6.70
2019-05-17T04:42:08.084Z,7.40
2019-05-17T04:47:13.414Z,7.67
2019-05-17T04:52:17.681Z,6.20
2019-05-17T04:57:23.131Z,8.60
2019-05-17T05:02:27.640Z,6.60
2019-05-17T05:07:33.561Z,7.33
2019-05-17T05:12:38.556Z,6.60
2019-05-17T05:17:43.014Z,7.80
2019-05-17T05:22:47.519Z,7.23
2019-05-17T05:27:52.068Z,9.57
2019-05-17T05:32:55.948Z,7.43
2019-05-17T05:38:02.175Z,7.47
2019-05-17T05:43:05.983Z,10.50
2019-05-17T05:48:12.459Z,11.13
2019-05-17T05:53:15.663Z,9.80
2019-05-17T05:58:19.936Z,7.23
2019-05-17T06:03:23.952Z,9.43
2019-05-17T06:08:28.506Z,7.37
2019-05-17T06:13:33.153Z,7.30
2019-05-17T06:18:37.419Z,9.63
2019-05-17T06:23:42.418Z,7.30
2019-05-17T06:28:46.699Z,7.10
2019-05-17T06:33:52.447Z,6.73
2019-05-17T06:38:56.593Z,6.67
2019-05-17T06:44:02.733Z,8.50
2019-05-17T06:49:06.866Z,7.70
2019-05-17T06:54:12.037Z,7.30
2019-05-17T06:59:16.773Z,9.60
2019-05-17T07:04:21.018Z,20.80
2019-05-17T07:09:25.241Z,28.57
2019-05-17T07:14:29.529Z,9.37
2019-05-17T07:19:33.809Z,22.17
2019-05-17T07:24:39.735Z,15.37
2019-05-17T07:29:44.459Z,13.80
2019-05-17T07:34:50.732Z,15.40
2019-05-17T07:40:01.030Z,12.50
2019-05-17T07:45:01.444Z,15.50
2019-05-17T07:50:11.276Z,13.77
2019-05-17T07:55:16.041Z,11.30
2019-05-17T08:00:21.295Z,11.57
2019-05-17T08:05:25.175Z,12.77
2019-05-17T08:10:29.827Z,20.50
2019-05-17T08:15:34.140Z,14.30
2019-05-17T08:20:40.043Z,14.23
2019-05-17T08:25:52.823Z,17.20
2019-05-17T08:30:50.380Z,15.00
2019-05-17T08:35:54.326Z,20.13
2019-05-17T08:41:00.690Z,12.93
2019-05-17T08:46:04.336Z,16.50
2019-05-17T08:51:10.588Z,12.03
2019-05-17T08:56:14.318Z,14.90
2019-05-17T09:01:19.589Z,16.23
2019-05-17T09:06:24.120Z,12.87
2019-05-17T09:11:30.122Z,15.77
2019-05-17T09:16:34.116Z,13.70
2019-05-17T09:21:39.713Z,13.70
2019-05-17T09:26:44.488Z,13.40
2019-05-17T09:31:50.388Z,12.83
2019-05-17T09:36:54.300Z,16.13
2019-05-17T09:41:59.550Z,12.80
2019-05-17T09:47:04.432Z,14.97
2019-05-17T09:52:09.602Z,16.57
2019-05-17T09:57:13.798Z,13.20
2019-05-17T10:02:20.168Z,12.43
2019-05-17T10:07:23.823Z,8.93
2019-05-17T10:12:28.017Z,8.97
2019-05-17T10:17:32.074Z,12.70
2019-05-17T10:22:36.014Z,8.53
2019-05-17T10:27:40.664Z,12.00
2019-05-17T10:32:45.499Z,8.93
2019-05-17T10:37:50.514Z,6.97
2019-05-17T10:42:55.101Z,8.87
2019-05-17T10:48:00.774Z,9.20
2019-05-17T10:53:04.962Z,8.70
2019-05-17T10:58:09.931Z,9.60
2019-05-17T11:03:14.235Z,9.10
2019-05-17T11:08:19.704Z,7.10
2019-05-17T11:13:23.783Z,5.90
2019-05-17T11:18:27.704Z,8.13
2019-05-17T11:23:31.641Z,5.93
2019-05-17T11:28:35.983Z,5.77
2019-05-17T11:33:40.334Z,4.63
2019-05-17T11:38:44.742Z,3.53
2019-05-17T11:43:49.083Z,3.53
2019-05-17T11:48:53.877Z,3.80
2019-05-17T11:53:58.479Z,3.20
2019-05-17T11:59:03.474Z,5.80
2019-05-17T12:04:07.570Z,3.00
2019-05-17T12:09:11.458Z,3.37
2019-05-17T12:14:15.745Z,2.93
2019-05-17T12:19:19.788Z,3.67
2019-05-17T12:24:24.098Z,2.90
2019-05-17T12:29:28.239Z,2.50
2019-05-17T12:34:32.876Z,3.40
2019-05-17T12:39:37.176Z,3.50
2019-05-17T12:44:41.848Z,1.70
2019-05-17T12:49:46.009Z,1.80
2019-05-17T12:54:49.904Z,1.47
2019-05-17T12:59:53.776Z,1.50
2019-05-17T13:04:58.353Z,2.00
2019-05-17T13:10:02.915Z,2.00
2019-05-17T13:15:07.466Z,1.63
2019-05-17T13:20:12.944Z,1.63
2019-05-17T13:25:18.775Z,2.50
2019-05-17T13:30:23.226Z,5.13
2019-05-17T13:35:27.482Z,9.23
2019-05-17T13:40:39.268Z,18.60
2019-05-17T13:45:37.493Z,14.07
2019-05-17T13:50:41.671Z,11.40
2019-05-17T13:55:46.209Z,11.97
2019-05-17T14:00:50.465Z,13.23
2019-05-17T14:05:54.993Z,9.37
2019-05-17T14:10:59.361Z,10.20
2019-05-17T14:16:03.685Z,12.70
2019-05-17T14:21:07.727Z,8.53
2019-05-17T14:26:11.820Z,11.43
2019-05-17T14:31:16.168Z,11.30
2019-05-17T14:36:20.256Z,11.40
2019-05-17T14:41:24.157Z,11.27
2019-05-17T14:46:28.752Z,7.80
2019-05-17T14:51:32.698Z,15.23
2019-05-17T14:56:36.895Z,9.73
2019-05-17T15:01:40.781Z,10.93
2019-05-17T15:06:45.131Z,13.83
2019-05-17T15:11:49.431Z,17.25
2019-05-17T15:16:53.641Z,15.73
2019-05-17T15:21:57.597Z,8.43
2019-05-17T15:27:05.803Z,13.40
2019-05-17T15:32:07.520Z,15.27
2019-05-17T15:37:11.598Z,14.07
2019-05-17T15:42:16.253Z,10.87
2019-05-17T15:47:20.787Z,9.17
2019-05-17T15:52:25.003Z,9.90
2019-05-17T15:57:29.661Z,13.43
2019-05-17T16:02:33.514Z,6.63
2019-05-17T16:07:37.621Z,14.60
2019-05-17T16:12:41.848Z,9.80
2019-05-17T16:17:46.548Z,6.57
2019-05-17T16:22:51.036Z,7.80
2019-05-17T16:27:55.051Z,27.00
2019-05-17T16:32:59.609Z,18.73
2019-05-17T16:38:03.933Z,20.93
2019-05-17T16:43:17.576Z,14.50
2019-05-17T16:48:14.164Z,10.80
2019-05-17T16:53:18.112Z,11.70
2019-05-17T16:58:22.042Z,10.17
2019-05-17T17:03:34.808Z,11.83
2019-05-17T17:08:32.314Z,8.20
2019-05-17T17:13:36.568Z,9.17
2019-05-17T17:18:40.592Z,10.13
2019-05-17T17:23:44.871Z,6.60
2019-05-17T17:28:49.450Z,8.43
2019-05-17T17:33:53.699Z,7.97
2019-05-17T17:38:57.999Z,7.13
2019-05-17T17:44:02.681Z,6.20
2019-05-17T17:49:06.978Z,6.70
2019-05-17T17:54:11.232Z,11.17
2019-05-17T17:59:15.520Z,7.10
2019-05-17T18:04:19.475Z,6.07
2019-05-17T18:09:24.156Z,5.47
2019-05-17T18:14:28.010Z,6.27
2019-05-17T18:19:32.661Z,9.47
2019-05-17T18:24:37.637Z,6.50
2019-05-17T18:29:42.017Z,9.80
2019-05-17T18:34:46.531Z,8.87
2019-05-17T18:39:50.396Z,6.10
2019-05-17T18:44:54.689Z,6.30
2019-05-17T18:49:59.353Z,5.00
2019-05-17T18:55:03.684Z,5.53
2019-05-17T19:00:09.114Z,6.17
2019-05-17T19:05:13.168Z,5.23
2019-05-17T19:10:17.999Z,6.40
2019-05-17T19:15:23.216Z,4.53
2019-05-17T19:20:27.497Z,4.97
2019-05-17T19:25:31.839Z,4.20
2019-05-17T19:30:36.196Z,5.10
2019-05-17T19:35:40.216Z,4.90
2019-05-17T19:40:44.687Z,4.90
2019-05-17T19:45:49.000Z,7.37
2019-05-17T19:50:53.248Z,4.77
2019-05-17T19:55:57.549Z,4.10
2019-05-17T20:01:02.025Z,4.93
2019-05-17T20:06:06.488Z,5.23
2019-05-17T20:11:10.508Z,9.23
2019-05-17T20:16:14.890Z,6.17
2019-05-17T20:21:18.839Z,5.90
2019-05-17T20:26:22.860Z,4.93
2019-05-17T20:31:26.815Z,5.70
2019-05-17T20:36:31.080Z,6.70
2019-05-17T20:41:35.926Z,5.50
2019-05-17T20:46:40.379Z,5.17
2019-05-17T20:51:44.650Z,5.43
2019-05-17T20:56:49.533Z,5.83
2019-05-17T21:01:54.112Z,6.03
2019-05-17T21:06:58.294Z,5.60
2019-05-17T21:12:02.553Z,6.50
2019-05-17T21:17:06.514Z,6.37
2019-05-17T21:22:11.416Z,5.07
2019-05-17T21:27:15.295Z,5.70
2019-05-17T21:32:19.558Z,5.40
2019-05-17T21:37:23.503Z,5.10
2019-05-17T21:42:27.435Z,6.03
2019-05-17T21:47:31.457Z,6.20
2019-05-17T21:52:43.081Z,6.30
2019-05-17T21:57:47.262Z,5.47
2019-05-17T22:02:51.515Z,8.40
2019-05-17T22:07:56.214Z,6.30
2019-05-17T22:13:00.404Z,6.60
2019-05-17T22:18:04.376Z,7.20
2019-05-17T22:23:09.033Z,10.63
2019-05-17T22:28:12.894Z,6.43
2019-05-17T22:33:17.205Z,6.87
2019-05-17T22:38:21.519Z,7.47
2019-05-17T22:43:26.177Z,8.10
2019-05-17T22:48:30.497Z,8.37
2019-05-17T22:53:34.512Z,6.80
2019-05-17T22:58:38.790Z,7.67
2019-05-17T23:03:42.796Z,8.27
2019-05-17T23:08:46.836Z,7.50
2019-05-17T23:13:51.593Z,7.53
2019-05-17T23:19:08.779Z,6.13
2019-05-17T23:24:12.827Z,9.07
2019-05-17T23:29:17.000Z,8.93
2019-05-17T23:34:21.285Z,8.97
2019-05-17T23:39:25.550Z,6.87
2019-05-17T23:44:30.004Z,8.23
2019-05-17T23:49:34.613Z,7.10
2019-05-17T23:54:38.771Z,7.43
2019-05-17T23:59:42.922Z,6.63
